Time;durP1;ratioP1;P1;durP2;ratioP2;P2;SDS_P1;SDS_P2;PMS_P1;PMS_P2;Temp;Humidity;BMP_temperature;BMP_pressure;BME280_temperature;BME280_humidity;BME280_pressure;Samples;Min_cycle;Max_cycle;Signal;HPM_P1;HPM_P2
2022/01/19 00:01:50;;;;;;;23.92;12.45;;;7.90;85.20;;;;;;5015751;28;20512;-33
2022/01/19 00:04:15;;;;;;;25.23;12.82;;;7.90;85.20;;;;;;5015690;28;20030;-30
2022/01/19 00:06:41;;;;;;;24.50;12.10;;;8.00;85.30;;;;;;5015649;28;20360;-31
2022/01/19 00:09:07;;;;;;;23.75;12.57;;;8.00;85.20;;;;;;5015545;28;20057;-30
2022/01/19 00:11:32;;;;;;;24.55;12.68;;;8.00;85.20;;;;;;5015553;28;20033;-30
2022/01/19 00:13:58;;;;;;;24.80;12.98;;;8.00;85.10;;;;;;5015453;28;20030;-32
2022/01/19 00:16:25;;;;;;;25.80;12.85;;;8.00;85.10;;;;;;5015631;28;20055;-32
2022/01/19 00:18:50;;;;;;;24.85;11.98;;;8.00;85.10;;;;;;5015355;28;20026;-31
2022/01/19 00:21:16;;;;;;;26.05;12.90;;;8.00;85.20;;;;;;5015319;28;20092;-33
2022/01/19 00:23:41;;;;;;;26.65;12.07;;;7.90;85.10;;;;;;5015291;28;20029;-31
2022/01/19 00:26:07;;;;;;;23.90;12.90;;;7.90;85.20;;;;;;5015257;28;20073;-31
2022/01/19 00:28:33;;;;;;;22.75;12.30;;;8.00;85.30;;;;;;5015522;28;20398;-32
2022/01/19 00:30:58;;;;;;;22.80;12.05;;;7.90;85.30;;;;;;5015212;28;20053;-30
2022/01/19 00:33:24;;;;;;;23.38;12.25;;;8.00;85.30;;;;;;5015071;28;20441;-33
2022/01/19 00:35:51;;;;;;;21.73;11.55;;;8.00;85.30;;;;;;5014421;28;20042;-31
2022/01/19 00:38:17;;;;;;;25.05;12.88;;;8.00;85.10;;;;;;5012884;28;20038;-30
2022/01/19 00:40:43;;;;;;;25.98;12.90;;;8.00;85.10;;;;;;5014084;28;20029;-33
2022/01/19 00:43:08;;;;;;;28.17;13.10;;;8.00;85.10;;;;;;5014091;28;20026;-30
2022/01/19 00:45:34;;;;;;;23.98;12.70;;;8.00;85.10;;;;;;5013932;28;20018;-30
2022/01/19 00:48:00;;;;;;;21.70;11.95;;;8.00;85.10;;;;;;5013846;28;20438;-30
2022/01/19 00:50:28;;;;;;;19.33;12.02;;;8.00;85.10;;;;;;5013848;28;20170;-30
2022/01/19 00:52:54;;;;;;;23.67;12.32;;;8.00;85.20;;;;;;5012855;28;20021;-34
2022/01/19 00:55:22;;;;;;;26.27;12.60;;;8.00;85.20;;;;;;5013766;28;20026;-32
2022/01/19 00:57:48;;;;;;;22.30;12.10;;;8.00;85.10;;;;;;5013647;28;20030;-30
2022/01/19 01:00:21;;;;;;;22.80;12.45;;;8.00;85.10;;;;;;5013687;28;20029;-33
2022/01/19 01:02:46;;;;;;;24.48;13.30;;;7.90;85.10;;;;;;5013763;28;20532;-31
2022/01/19 01:05:12;;;;;;;25.42;12.88;;;7.90;85.10;;;;;;5013623;28;20029;-30
2022/01/19 01:07:41;;;;;;;24.27;12.98;;;7.90;85.10;;;;;;5013579;28;20022;-30
2022/01/19 01:10:09;;;;;;;24.65;14.18;;;7.90;85.00;;;;;;5013498;28;20478;-29
2022/01/19 01:12:50;;;;;;;23.73;12.02;;;7.90;85.10;;;;;;5013779;28;20029;-30
2022/01/19 01:15:27;;;;;;;24.48;12.45;;;7.90;85.10;;;;;;5013681;28;20478;-31
2022/01/19 01:20:36;;;;;;;23.75;13.77;;;7.70;85.20;;;;;;5013882;28;20065;-30
2022/01/19 01:23:09;;;;;;;23.13;12.38;;;7.70;85.30;;;;;;5013334;28;20026;-32
2022/01/19 01:25:35;;;;;;;22.55;12.93;;;7.60;85.40;;;;;;5013647;28;20529;-30
2022/01/19 01:28:00;;;;;;;25.95;14.07;;;7.50;85.50;;;;;;5013351;28;20478;-30
2022/01/19 01:30:26;;;;;;;27.42;13.85;;;7.40;85.60;;;;;;5013393;28;20117;-29
2022/01/19 01:32:52;;;;;;;22.58;12.68;;;7.40;85.70;;;;;;5012768;28;20087;-29
2022/01/19 01:35:17;;;;;;;27.10;13.25;;;7.30;85.70;;;;;;4976681;28;1061135;-29
2022/01/19 01:37:43;;;;;;;24.17;13.45;;;7.20;85.80;;;;;;5013793;28;20112;-31
2022/01/19 01:40:13;;;;;;;26.13;13.93;;;7.20;85.90;;;;;;5014093;28;20025;-31
2022/01/19 01:42:39;;;;;;;26.88;13.68;;;7.10;86.00;;;;;;5014109;28;20496;-31
2022/01/19 01:45:10;;;;;;;25.52;13.20;;;7.00;86.00;;;;;;5012375;28;20079;-30
2022/01/19 01:47:41;;;;;;;26.10;12.38;;;7.00;86.10;;;;;;5014060;28;20421;-30
2022/01/19 01:55:21;;;;;;;25.27;13.00;;;6.80;86.30;;;;;;5013545;28;20045;-30
2022/01/19 01:57:47;;;;;;;21.17;12.30;;;6.70;86.30;;;;;;5013839;28;20029;-32
2022/01/19 02:00:16;;;;;;;29.90;13.50;;;6.70;86.50;;;;;;5013589;28;20482;-30
2022/01/19 02:02:42;;;;;;;29.50;13.82;;;6.70;86.50;;;;;;5013469;28;20504;-31
2022/01/19 02:05:10;;;;;;;27.70;13.43;;;6.70;86.50;;;;;;5013613;28;20022;-34
2022/01/19 02:08:01;;;;;;;28.83;14.45;;;6.70;86.50;;;;;;5013659;28;20084;-34
2022/01/19 02:10:42;;;;;;;32.42;15.05;;;6.70;86.40;;;;;;5013333;28;20034;-30
2022/01/19 02:23:54;;;;;;;65.20;12.13;;;6.70;86.30;;;;;;5013407;28;20033;-32
2022/01/19 02:26:52;;;;;;;40.42;11.75;;;6.60;86.30;;;;;;5013242;28;20032;-30
2022/01/19 02:42:43;;;;;;;37.33;11.95;;;6.60;86.40;;;;;;5013297;28;20048;-31
2022/01/19 02:50:24;;;;;;;24.55;13.15;;;6.50;86.30;;;;;;5017338;28;20044;-32
2022/01/19 02:52:50;;;;;;;24.60;12.30;;;6.50;86.40;;;;;;5017083;28;20029;-32
2022/01/19 02:55:15;;;;;;;24.00;12.70;;;6.50;86.40;;;;;;5017051;28;20118;-31
2022/01/19 02:57:42;;;;;;;24.60;12.68;;;6.40;86.50;;;;;;5017101;28;20088;-31
2022/01/19 03:11:06;;;;;;;23.95;13.45;;;6.10;86.70;;;;;;5017072;28;20044;-33
2022/01/19 03:13:31;;;;;;;22.70;12.23;;;6.10;86.80;;;;;;5016675;28;20030;-30
2022/01/19 03:15:57;;;;;;;19.25;11.10;;;6.00;86.90;;;;;;5016493;28;20033;-32
2022/01/19 03:18:22;;;;;;;20.52;11.73;;;6.00;86.90;;;;;;5016357;28;20033;-30
2022/01/19 03:20:48;;;;;;;22.83;12.55;;;6.00;86.90;;;;;;5016479;28;20410;-30
2022/01/19 03:23:20;;;;;;;25.02;12.52;;;5.90;86.90;;;;;;5016632;28;20100;-30
2022/01/19 03:25:46;;;;;;;27.13;13.73;;;5.90;86.90;;;;;;5016525;28;20449;-30
2022/01/19 03:28:12;;;;;;;22.98;12.57;;;5.80;86.90;;;;;;5031582;28;20129;-30
2022/01/19 03:30:37;;;;;;;21.27;12.38;;;5.80;86.90;;;;;;5016388;28;20113;-30
2022/01/19 03:33:03;;;;;;;26.20;13.50;;;5.80;87.00;;;;;;5016476;28;20083;-29
2022/01/19 03:35:29;;;;;;;25.38;13.25;;;5.70;87.00;;;;;;5016059;28;20121;-33
2022/01/19 03:37:56;;;;;;;22.48;13.05;;;5.70;87.00;;;;;;5016384;28;20030;-31
2022/01/19 03:40:22;;;;;;;22.45;13.48;;;5.70;87.00;;;;;;5016211;28;20025;-33
2022/01/19 03:42:48;;;;;;;24.30;12.23;;;5.70;86.90;;;;;;5016395;28;20109;-30
2022/01/19 03:45:14;;;;;;;26.88;13.05;;;5.70;87.00;;;;;;5016069;28;20036;-31
2022/01/19 03:47:45;;;;;;;20.73;11.15;;;5.60;87.00;;;;;;5016091;28;20030;-30
2022/01/19 03:50:11;;;;;;;18.70;11.30;;;5.60;87.10;;;;;;5016237;28;20034;-35
2022/01/19 03:52:36;;;;;;;20.10;11.43;;;5.50;87.00;;;;;;5016279;28;20108;-31
2022/01/19 03:55:03;;;;;;;22.05;11.88;;;5.50;87.10;;;;;;5015562;28;20494;-31
2022/01/19 03:57:29;;;;;;;20.83;12.20;;;5.50;87.10;;;;;;5014774;28;20486;-31
2022/01/19 03:59:54;;;;;;;20.85;12.23;;;5.50;87.10;;;;;;5015769;28;20028;-29
2022/01/19 04:02:20;;;;;;;22.00;11.95;;;5.50;87.10;;;;;;5015629;28;20022;-30
2022/01/19 04:04:57;;;;;;;19.77;11.88;;;5.50;87.10;;;;;;5015794;28;20535;-31
2022/01/19 04:07:23;;;;;;;21.45;12.55;;;5.50;87.00;;;;;;5015547;28;20022;-30
2022/01/19 04:09:48;;;;;;;20.48;11.77;;;5.50;87.00;;;;;;5015515;28;20042;-30
2022/01/19 04:12:19;;;;;;;23.63;12.27;;;5.50;86.90;;;;;;5015587;28;20077;-29
2022/01/19 04:14:45;;;;;;;20.52;11.20;;;5.50;86.90;;;;;;5015688;28;20113;-30
2022/01/19 04:17:16;;;;;;;21.27;12.23;;;5.50;87.50;;;;;;5015340;28;20551;-30
2022/01/19 04:19:47;;;;;;;21.27;12.07;;;5.50;86.90;;;;;;5015690;28;20382;-30
2022/01/19 04:22:19;;;;;;;18.75;10.80;;;5.50;86.90;;;;;;5015624;28;20026;-30
2022/01/19 04:24:46;;;;;;;19.77;11.45;;;5.40;86.80;;;;;;5015631;28;20148;-31
2022/01/19 04:30:11;;;;;;;18.45;10.80;;;5.40;86.80;;;;;;5015254;28;20397;-30
2022/01/19 04:35:08;;;;;;;18.63;10.77;;;5.30;86.90;;;;;;5014931;28;20430;-34
2022/01/19 04:54:35;;;;;;;15.75;9.43;;;5.10;86.90;;;;;;5015058;28;20049;-30
2022/01/19 05:05:17;;;;;;;18.10;10.60;;;5.10;86.80;;;;;;5014833;28;20552;-33
2022/01/19 05:07:54;;;;;;;18.70;9.93;;;5.10;86.80;;;;;;5013760;28;20037;-30
2022/01/19 05:16:09;;;;;;;14.45;9.77;;;5.10;86.70;;;;;;5012265;28;20129;-31
2022/01/19 05:18:34;;;;;;;16.70;10.52;;;5.20;86.70;;;;;;5012228;28;20069;-30
2022/01/19 05:21:00;;;;;;;15.95;8.85;;;5.20;86.60;;;;;;5013147;28;20123;-32
2022/01/19 05:23:26;;;;;;;17.05;9.68;;;5.30;86.60;;;;;;5014214;28;20079;-31
2022/01/19 05:25:51;;;;;;;16.58;9.50;;;5.40;86.60;;;;;;5014336;28;20106;-30
2022/01/19 05:28:17;;;;;;;14.15;8.98;;;5.40;86.50;;;;;;5014341;28;20026;-30
2022/01/19 05:30:43;;;;;;;15.75;9.77;;;5.40;86.30;;;;;;5014172;28;20057;-30
2022/01/19 05:33:08;;;;;;;15.77;9.60;;;5.50;86.20;;;;;;5014035;28;20030;-34
2022/01/19 05:35:34;;;;;;;13.88;9.02;;;5.50;86.10;;;;;;5014172;28;20387;-33
2022/01/19 05:38:00;;;;;;;14.63;9.10;;;5.60;86.00;;;;;;5013965;28;20061;-33
2022/01/19 05:40:26;;;;;;;13.05;9.05;;;5.60;85.90;;;;;;5014294;28;20022;-30
2022/01/19 05:42:51;;;;;;;12.55;8.60;;;5.60;85.80;;;;;;5014275;28;20474;-30
2022/01/19 05:45:18;;;;;;;12.68;8.85;;;5.60;85.80;;;;;;5013817;28;20022;-30
2022/01/19 05:47:45;;;;;;;14.60;9.82;;;5.60;85.70;;;;;;5013929;28;20037;-32
2022/01/19 05:50:12;;;;;;;16.17;10.10;;;5.70;85.60;;;;;;5014124;28;20064;-33
2022/01/19 05:52:38;;;;;;;14.43;9.52;;;5.60;85.50;;;;;;5014144;28;20500;-33
2022/01/19 05:55:04;;;;;;;14.50;9.88;;;5.70;85.60;;;;;;5013780;28;20030;-33
2022/01/19 05:57:31;;;;;;;15.77;9.95;;;5.70;85.50;;;;;;5013547;28;20038;-30
2022/01/19 05:59:57;;;;;;;16.08;10.20;;;5.70;85.50;;;;;;5013934;28;20359;-35
2022/01/19 06:02:22;;;;;;;16.75;11.35;;;5.70;85.50;;;;;;5013878;28;20037;-33
2022/01/19 06:04:49;;;;;;;20.83;11.82;;;5.70;85.40;;;;;;5013796;28;20470;-31
2022/01/19 06:07:15;;;;;;;17.00;11.23;;;5.70;85.30;;;;;;5013521;28;20447;-36
2022/01/19 06:12:12;;;;;;;17.55;11.18;;;5.70;85.30;;;;;;5013391;28;20034;-31
2022/01/19 06:14:40;;;;;;;17.88;11.52;;;5.70;85.20;;;;;;5013505;28;20030;-33
2022/01/19 06:17:08;;;;;;;17.35;10.40;;;5.70;85.20;;;;;;5013439;28;20504;-32
2022/01/19 06:19:34;;;;;;;20.10;11.75;;;5.80;85.20;;;;;;5013265;28;20101;-32
2022/01/19 06:22:00;;;;;;;20.83;11.70;;;5.80;85.10;;;;;;5013336;28;20456;-31
2022/01/19 06:24:27;;;;;;;22.25;13.02;;;5.80;85.00;;;;;;5013319;28;20030;-30
2022/01/19 06:26:53;;;;;;;20.83;12.50;;;5.70;84.90;;;;;;5013260;28;20034;-31
2022/01/19 06:29:19;;;;;;;21.73;12.95;;;5.70;85.00;;;;;;5013280;28;20083;-30
2022/01/19 06:31:44;;;;;;;21.60;13.50;;;5.70;85.00;;;;;;5013097;28;20117;-31
2022/01/19 06:34:10;;;;;;;23.38;13.63;;;5.70;85.00;;;;;;5013662;28;20049;-30
2022/01/19 06:36:36;;;;;;;26.70;15.25;;;5.70;85.00;;;;;;5013035;28;20133;-35
2022/01/19 06:39:02;;;;;;;27.08;14.98;;;5.70;85.00;;;;;;5013126;28;20033;-30
2022/01/19 06:41:28;;;;;;;32.25;16.05;;;5.70;85.00;;;;;;5013131;28;20057;-30
2022/01/19 06:43:53;;;;;;;28.13;16.67;;;5.60;84.80;;;;;;5013294;28;20556;-38
2022/01/19 06:46:19;;;;;;;32.95;17.70;;;5.60;84.80;;;;;;5013096;28;20057;-32
2022/01/19 06:48:45;;;;;;;32.20;17.88;;;5.50;84.90;;;;;;5013154;28;20026;-30
2022/01/19 06:51:10;;;;;;;31.65;16.30;;;5.50;85.00;;;;;;5013058;28;20496;-31
2022/01/19 06:53:36;;;;;;;34.47;17.38;;;5.50;85.00;;;;;;5013025;28;20029;-31
2022/01/19 06:56:02;;;;;;;31.58;17.25;;;5.60;85.10;;;;;;5013034;28;20100;-30
2022/01/19 06:58:29;;;;;;;34.28;18.33;;;5.50;85.00;;;;;;5013004;28;20486;-30
2022/01/19 07:00:55;;;;;;;33.05;17.83;;;5.50;85.00;;;;;;5012963;28;20036;-31
2022/01/19 07:03:22;;;;;;;36.75;18.77;;;5.50;85.10;;;;;;5012895;28;20084;-30
2022/01/19 07:05:47;;;;;;;32.88;17.45;;;5.50;85.00;;;;;;5012881;28;20030;-30
2022/01/19 07:08:15;;;;;;;32.80;17.63;;;5.50;85.10;;;;;;5013085;28;20428;-30
2022/01/19 07:10:40;;;;;;;34.30;17.95;;;5.50;85.10;;;;;;5012791;28;20037;-31
2022/01/19 07:13:06;;;;;;;33.13;16.95;;;5.50;85.00;;;;;;5012854;28;20034;-32
2022/01/19 07:15:32;;;;;;;32.25;16.58;;;5.50;85.00;;;;;;5012912;28;20028;-30
2022/01/19 07:17:58;;;;;;;31.63;16.92;;;5.40;85.60;;;;;;5012866;28;20116;-31
2022/01/19 07:20:24;;;;;;;33.72;17.45;;;5.40;85.10;;;;;;5012768;28;20030;-31
2022/01/19 07:22:50;;;;;;;33.53;18.55;;;5.40;85.00;;;;;;5012691;28;20037;-32
2022/01/19 07:25:17;;;;;;;33.47;17.77;;;5.40;85.00;;;;;;5012827;28;20030;-30
2022/01/19 07:27:43;;;;;;;32.90;17.75;;;5.40;85.00;;;;;;5013003;28;20359;-29
2022/01/19 07:30:09;;;;;;;35.67;17.92;;;5.40;85.10;;;;;;5012756;28;20045;-30
2022/01/19 07:32:36;;;;;;;35.88;17.80;;;5.40;85.10;;;;;;5016259;28;20060;-32
2022/01/19 07:35:03;;;;;;;39.38;20.80;;;5.40;84.90;;;;;;5016132;28;20042;-30
2022/01/19 07:37:29;;;;;;;34.72;18.23;;;5.30;85.00;;;;;;5015972;28;20034;-31
2022/01/19 07:39:54;;;;;;;30.00;17.02;;;5.30;85.10;;;;;;5014885;28;20026;-29
2022/01/19 07:42:20;;;;;;;34.42;17.80;;;5.30;85.10;;;;;;5016041;28;20117;-32
2022/01/19 07:44:46;;;;;;;34.83;17.27;;;5.30;85.10;;;;;;5016106;28;20037;-30
2022/01/19 07:47:12;;;;;;;38.13;17.88;;;5.30;85.00;;;;;;5016017;28;20025;-30
2022/01/19 07:49:37;;;;;;;37.60;18.17;;;5.30;85.10;;;;;;5016018;28;20030;-30
2022/01/19 07:52:03;;;;;;;31.33;17.05;;;5.30;85.20;;;;;;5015996;28;20034;-30
2022/01/19 07:54:29;;;;;;;33.08;17.15;;;5.20;85.00;;;;;;5015936;28;20432;-30
2022/01/19 07:56:54;;;;;;;31.52;16.70;;;5.20;85.10;;;;;;5015950;28;20033;-32
2022/01/19 07:59:20;;;;;;;28.85;16.35;;;5.20;85.10;;;;;;5015747;28;20030;-31
2022/01/19 08:01:46;;;;;;;31.48;17.98;;;5.20;85.10;;;;;;5015972;28;20105;-30
2022/01/19 08:04:12;;;;;;;31.88;17.30;;;5.20;85.10;;;;;;5015889;28;20069;-31
2022/01/19 08:06:37;;;;;;;31.27;17.70;;;5.20;85.00;;;;;;5015652;28;20374;-29
2022/01/19 08:09:04;;;;;;;31.67;17.77;;;5.20;85.00;;;;;;5015546;28;20073;-29
2022/01/19 08:11:30;;;;;;;30.58;16.42;;;5.20;85.00;;;;;;5015502;28;20025;-30
2022/01/19 08:13:55;;;;;;;29.13;15.82;;;5.20;85.10;;;;;;5015733;28;20051;-30
2022/01/19 08:16:21;;;;;;;32.03;16.67;;;5.20;85.10;;;;;;5030613;28;20097;-31
2022/01/19 08:18:47;;;;;;;28.73;16.25;;;5.30;85.10;;;;;;5015433;28;20060;-32
2022/01/19 08:21:13;;;;;;;32.03;16.63;;;5.30;85.10;;;;;;5015284;28;20053;-31
2022/01/19 08:23:39;;;;;;;31.73;17.67;;;5.30;85.00;;;;;;5014444;28;20064;-29
2022/01/19 08:26:05;;;;;;;33.42;17.05;;;5.30;85.00;;;;;;5015198;28;20021;-31
2022/01/19 08:28:30;;;;;;;36.00;18.17;;;5.30;85.00;;;;;;5015217;28;20030;-32
2022/01/19 08:30:56;;;;;;;29.45;16.90;;;5.30;85.00;;;;;;5015188;28;20021;-30
2022/01/19 08:33:22;;;;;;;31.65;18.05;;;5.30;85.10;;;;;;5015067;28;20076;-30
2022/01/19 08:35:47;;;;;;;30.30;17.10;;;5.30;85.10;;;;;;5015067;28;20046;-31
2022/01/19 08:38:13;;;;;;;29.30;16.40;;;5.30;85.00;;;;;;5014976;28;20405;-29
2022/01/19 08:40:38;;;;;;;29.25;15.98;;;5.30;85.00;;;;;;5015182;28;20033;-31
2022/01/19 08:43:05;;;;;;;29.83;17.42;;;5.30;85.10;;;;;;5013890;28;20021;-30
2022/01/19 08:45:32;;;;;;;28.90;16.55;;;5.40;85.20;;;;;;5014967;28;20073;-30
2022/01/19 08:47:57;;;;;;;31.70;17.17;;;5.30;85.10;;;;;;5014928;28;20025;-31
2022/01/19 08:50:23;;;;;;;30.65;17.30;;;5.40;85.10;;;;;;5014767;28;20026;-30
2022/01/19 08:52:48;;;;;;;28.48;16.17;;;5.40;85.00;;;;;;5014792;28;20466;-30
2022/01/19 08:55:15;;;;;;;26.08;15.73;;;5.40;85.00;;;;;;5014820;28;20021;-30
2022/01/19 08:57:41;;;;;;;27.67;16.00;;;5.40;85.00;;;;;;5014695;28;20536;-30
2022/01/19 09:00:10;;;;;;;23.75;15.10;;;5.40;85.00;;;;;;5014958;28;20025;-30
2022/01/19 09:02:36;;;;;;;28.40;16.30;;;5.40;85.10;;;;;;5014672;28;20026;-35
2022/01/19 09:05:03;;;;;;;27.02;15.82;;;5.40;85.00;;;;;;5014595;28;20072;-32
2022/01/19 09:07:29;;;;;;;28.17;16.58;;;5.40;85.00;;;;;;5014543;28;20069;-29
2022/01/19 09:09:55;;;;;;;25.25;15.00;;;5.40;85.00;;;;;;5014453;28;20034;-30
2022/01/19 09:12:20;;;;;;;25.30;15.68;;;5.40;85.10;;;;;;5014740;28;20025;-30
2022/01/19 09:14:46;;;;;;;27.80;15.82;;;5.40;85.00;;;;;;5014457;28;20029;-30
2022/01/19 09:17:11;;;;;;;27.90;16.13;;;5.50;85.00;;;;;;5014221;28;20026;-31
2022/01/19 09:19:39;;;;;;;26.92;15.98;;;5.40;84.90;;;;;;5014601;28;20022;-29
2022/01/19 09:22:06;;;;;;;23.95;15.00;;;5.50;85.00;;;;;;5014365;28;20014;-30
2022/01/19 09:24:34;;;;;;;29.40;17.23;;;5.50;85.00;;;;;;5014267;28;20497;-47
2022/01/19 09:27:00;;;;;;;27.85;15.60;;;5.50;84.90;;;;;;5014414;28;20029;-47
2022/01/19 09:29:26;;;;;;;27.10;16.00;;;5.40;84.90;;;;;;5014170;28;20057;-46
2022/01/19 09:31:54;;;;;;;26.58;15.73;;;5.40;85.00;;;;;;5014121;28;20029;-47
2022/01/19 09:34:21;;;;;;;28.23;16.70;;;5.50;85.00;;;;;;5014080;28;20481;-32
2022/01/19 09:36:47;;;;;;;27.92;16.90;;;5.50;85.00;;;;;;5013885;28;20030;-29
2022/01/19 09:39:19;;;;;;;28.27;16.10;;;5.50;84.90;;;;;;5014172;28;20026;-35
2022/01/19 09:41:46;;;;;;;30.15;16.55;;;5.50;85.00;;;;;;5014199;28;20019;-30
2022/01/19 09:44:12;;;;;;;28.55;16.15;;;5.40;84.90;;;;;;5013769;28;20020;-29
2022/01/19 09:46:38;;;;;;;25.45;16.15;;;5.40;85.00;;;;;;5013855;28;20025;-29
2022/01/19 09:49:05;;;;;;;24.15;15.32;;;5.40;85.00;;;;;;5013916;28;20018;-33
2022/01/19 09:51:31;;;;;;;23.98;15.27;;;5.50;85.10;;;;;;5013822;28;20025;-30
2022/01/19 09:53:57;;;;;;;26.67;16.17;;;5.50;85.10;;;;;;5013338;28;20083;-29
2022/01/19 09:56:22;;;;;;;24.25;15.40;;;5.50;85.00;;;;;;5013681;28;20382;-29
2022/01/19 09:58:48;;;;;;;24.83;15.55;;;5.50;85.00;;;;;;5013612;28;20389;-31
2022/01/19 10:01:21;;;;;;;25.98;14.95;;;5.50;85.00;;;;;;5013570;28;20025;-29
2022/01/19 10:03:47;;;;;;;22.70;15.07;;;5.50;85.00;;;;;;5013622;28;20026;-29
2022/01/19 10:06:18;;;;;;;25.55;14.27;;;5.60;85.10;;;;;;5013516;28;20033;-30
2022/01/19 10:08:49;;;;;;;23.40;14.18;;;5.60;85.00;;;;;;5013645;28;20072;-34
2022/01/19 10:17:01;;;;;;;24.10;14.60;;;5.70;85.00;;;;;;5013626;28;20042;-30
2022/01/19 10:19:42;;;;;;;22.67;13.63;;;5.60;84.80;;;;;;5013407;28;20391;-31
2022/01/19 10:22:09;;;;;;;20.50;13.48;;;5.60;84.80;;;;;;5013173;28;20026;-29
2022/01/19 10:24:51;;;;;;;22.15;14.35;;;5.70;84.90;;;;;;5013601;28;20049;-29
2022/01/19 10:27:32;;;;;;;25.20;14.25;;;5.70;84.90;;;;;;5013521;28;20034;-29
2022/01/19 10:30:20;;;;;;;23.58;13.60;;;5.60;84.90;;;;;;5011933;28;20036;-31
2022/01/19 10:32:59;;;;;;;21.38;14.15;;;5.70;85.00;;;;;;5013415;28;20363;-32
2022/01/19 10:35:25;;;;;;;20.95;14.05;;;5.70;85.60;;;;;;5012958;28;20103;-31
2022/01/19 10:38:12;;;;;;;22.13;12.98;;;5.70;85.00;;;;;;5012975;28;20453;-29
2022/01/19 10:40:40;;;;;;;21.40;13.70;;;5.80;85.00;;;;;;5013400;28;20030;-29
2022/01/19 10:43:28;;;;;;;21.83;13.60;;;5.80;84.90;;;;;;5013119;28;20022;-30
2022/01/19 10:45:56;;;;;;;21.20;13.13;;;5.80;84.80;;;;;;5012943;28;20088;-29
2022/01/19 10:48:39;;;;;;;20.10;13.38;;;5.80;84.80;;;;;;5012880;28;20022;-29
2022/01/19 10:51:10;;;;;;;19.38;12.73;;;5.90;84.80;;;;;;5013182;28;20030;-30
2022/01/19 10:53:39;;;;;;;20.52;12.98;;;5.90;84.80;;;;;;5013077;28;20022;-30
2022/01/19 10:56:06;;;;;;;18.98;12.82;;;5.90;84.80;;;;;;5013052;28;20038;-30
2022/01/19 10:58:32;;;;;;;21.45;14.23;;;5.90;84.80;;;;;;5012908;28;20028;-29
2022/01/19 11:00:58;;;;;;;20.88;13.20;;;5.90;84.80;;;;;;5013012;28;20068;-32
2022/01/19 11:03:28;;;;;;;19.48;12.73;;;5.90;84.70;;;;;;5012853;28;20494;-29
2022/01/19 11:05:57;;;;;;;22.95;13.85;;;5.90;84.80;;;;;;5014210;28;20014;-29
2022/01/19 11:08:24;;;;;;;21.17;14.00;;;5.90;84.80;;;;;;5016945;28;20431;-31
2022/01/19 11:10:52;;;;;;;23.15;13.57;;;5.90;84.90;;;;;;5017007;28;20022;-31
2022/01/19 11:13:29;;;;;;;24.02;14.95;;;5.90;84.90;;;;;;5016675;28;20040;-36
2022/01/19 11:16:00;;;;;;;21.77;13.85;;;5.90;84.80;;;;;;5016565;28;20053;-31
2022/01/19 11:18:29;;;;;;;24.38;15.73;;;5.90;84.80;;;;;;5016759;28;20033;-33
2022/01/19 11:20:57;;;;;;;22.50;13.57;;;5.90;84.70;;;;;;5016577;28;20098;-32
2022/01/19 11:24:01;;;;;;;21.27;13.85;;;5.80;84.80;;;;;;5016464;28;20535;-31
2022/01/19 11:26:30;;;;;;;21.52;14.13;;;5.90;85.00;;;;;;5016664;28;20417;-30
2022/01/19 11:29:21;;;;;;;22.50;14.43;;;5.90;85.00;;;;;;5016644;28;20018;-30
2022/01/19 11:31:49;;;;;;;24.63;14.48;;;5.90;85.10;;;;;;5016285;28;20536;-30
2022/01/19 11:34:15;;;;;;;24.98;15.07;;;5.90;85.20;;;;;;5031170;28;20474;-31
2022/01/19 11:36:42;;;;;;;21.38;13.27;;;5.90;85.10;;;;;;5016383;28;20358;-29
2022/01/19 11:39:10;;;;;;;21.25;14.27;;;5.90;85.20;;;;;;5016403;28;20022;-29
2022/01/19 11:41:56;;;;;;;21.95;14.18;;;6.00;85.20;;;;;;5016373;28;20026;-36
2022/01/19 11:44:27;;;;;;;21.42;13.88;;;6.00;85.10;;;;;;5016283;28;20026;-31
2022/01/19 11:46:55;;;;;;;24.08;14.00;;;6.10;85.20;;;;;;5016293;28;20136;-30
2022/01/19 11:49:50;;;;;;;23.38;13.52;;;6.10;85.10;;;;;;5016042;28;20456;-35
2022/01/19 11:52:20;;;;;;;21.90;13.57;;;6.10;85.10;;;;;;5015974;28;20022;-30
2022/01/19 11:54:46;;;;;;;24.85;14.18;;;6.10;85.10;;;;;;5016334;28;20049;-30
2022/01/19 11:57:15;;;;;;;25.95;15.73;;;6.10;85.10;;;;;;5015800;28;20026;-31
2022/01/19 11:59:44;;;;;;;22.02;14.25;;;6.10;85.10;;;;;;5015859;28;20022;-37
2022/01/19 12:02:23;;;;;;;25.00;15.93;;;6.10;85.10;;;;;;5015752;28;20032;-31
2022/01/19 12:04:52;;;;;;;24.98;14.80;;;6.10;85.10;;;;;;5015687;28;20496;-33
2022/01/19 12:07:37;;;;;;;24.55;14.93;;;6.10;85.20;;;;;;5014414;28;20034;-30
2022/01/19 12:10:05;;;;;;;25.80;15.45;;;6.10;85.20;;;;;;5015711;28;20084;-31
2022/01/19 12:12:36;;;;;;;23.58;15.43;;;6.10;85.20;;;;;;5015908;28;20466;-29
2022/01/19 12:15:07;;;;;;;25.20;14.80;;;6.10;85.30;;;;;;5015734;28;20060;-29
2022/01/19 12:17:55;;;;;;;21.45;15.05;;;6.00;85.40;;;;;;5015140;28;20088;-31
2022/01/19 12:20:53;;;;;;;26.48;15.90;;;6.00;85.40;;;;;;5015654;28;20026;-33
2022/01/19 12:23:26;;;;;;;23.38;15.18;;;6.00;85.50;;;;;;5003427;28;20478;-30
2022/01/19 12:25:53;;;;;;;24.42;15.18;;;6.00;85.50;;;;;;5015295;28;20026;-31
2022/01/19 12:28:53;;;;;;;25.25;15.60;;;6.10;85.60;;;;;;5015575;28;20032;-31
2022/01/19 12:31:25;;;;;;;25.70;15.00;;;6.10;85.50;;;;;;5015094;28;20037;-32
2022/01/19 12:34:02;;;;;;;24.23;15.05;;;6.20;85.60;;;;;;5015381;28;20034;-30
2022/01/19 12:36:55;;;;;;;23.58;14.75;;;6.20;85.50;;;;;;5014932;28;20053;-30
2022/01/19 12:39:26;;;;;;;30.08;17.85;;;6.30;85.50;;;;;;5015250;28;20037;-31
2022/01/19 12:42:08;;;;;;;23.20;15.52;;;6.40;85.20;;;;;;5015048;28;20032;-32
2022/01/19 12:44:53;;;;;;;25.48;16.42;;;6.40;85.10;;;;;;5015318;28;20417;-32
2022/01/19 12:47:25;;;;;;;24.13;15.55;;;6.40;85.10;;;;;;5015096;28;20382;-31
2022/01/19 12:49:56;;;;;;;24.70;15.82;;;6.40;85.20;;;;;;5014737;28;20095;-31
2022/01/19 12:52:27;;;;;;;25.48;14.68;;;6.40;85.20;;;;;;5014764;28;20091;-32
2022/01/19 12:54:55;;;;;;;24.63;15.77;;;6.40;85.10;;;;;;5014959;28;20048;-33
2022/01/19 12:57:21;;;;;;;25.30;15.80;;;6.50;85.20;;;;;;5014622;28;20025;-30
2022/01/19 12:59:49;;;;;;;22.77;15.23;;;6.50;85.20;;;;;;5013393;28;20053;-31
2022/01/19 13:02:16;;;;;;;27.92;16.63;;;6.50;85.20;;;;;;5014522;28;20541;-33
2022/01/19 13:04:46;;;;;;;22.77;15.85;;;6.50;85.10;;;;;;5014757;28;20044;-30
2022/01/19 13:07:20;;;;;;;25.65;16.45;;;6.50;85.50;;;;;;5014580;28;20029;-30
2022/01/19 13:10:06;;;;;;;25.95;14.93;;;6.50;85.10;;;;;;5014556;28;20037;-30
2022/01/19 13:12:39;;;;;;;27.70;17.02;;;6.50;85.20;;;;;;5014356;28;20037;-31
2022/01/19 13:15:05;;;;;;;27.08;17.15;;;6.50;85.10;;;;;;5014581;28;20382;-30
2022/01/19 13:17:42;;;;;;;27.42;16.60;;;6.50;85.10;;;;;;5014154;28;20037;-30
2022/01/19 13:20:14;;;;;;;32.25;18.58;;;6.40;85.10;;;;;;5014517;28;20033;-30
2022/01/19 13:22:54;;;;;;;30.55;18.40;;;6.40;85.10;;;;;;5014275;28;20014;-32
2022/01/19 13:25:29;;;;;;;26.67;16.73;;;6.40;85.10;;;;;;5014149;28;20466;-30
2022/01/19 13:27:57;;;;;;;27.45;18.38;;;6.30;85.20;;;;;;5013815;28;20164;-29
2022/01/19 13:30:25;;;;;;;25.83;17.30;;;6.30;85.30;;;;;;5014008;28;20034;-34
2022/01/19 13:32:51;;;;;;;28.58;17.50;;;6.30;85.30;;;;;;5013917;28;20026;-31
2022/01/19 13:35:17;;;;;;;31.98;19.33;;;6.30;85.40;;;;;;5013901;28;20061;-33
2022/01/19 13:37:48;;;;;;;28.75;17.23;;;6.30;85.30;;;;;;5013982;28;20030;-31
2022/01/19 13:40:16;;;;;;;29.70;18.10;;;6.30;85.40;;;;;;5013863;28;20021;-29
2022/01/19 13:42:47;;;;;;;30.10;17.23;;;6.30;85.40;;;;;;5013957;28;20022;-29
2022/01/19 13:51:03;;;;;;;27.50;17.60;;;6.30;85.30;;;;;;5014189;28;20037;-29
2022/01/19 13:53:32;;;;;;;29.05;17.65;;;6.30;85.40;;;;;;5013929;28;20033;-31
2022/01/19 13:56:00;;;;;;;25.55;17.25;;;6.30;85.40;;;;;;5013705;28;20445;-31
2022/01/19 13:58:39;;;;;;;29.10;17.58;;;6.30;85.50;;;;;;5013489;28;20057;-30
2022/01/19 14:01:08;;;;;;;29.25;19.23;;;6.40;85.60;;;;;;5012325;28;20033;-30
2022/01/19 14:03:58;;;;;;;26.77;18.23;;;6.40;85.60;;;;;;5013602;28;20068;-31
2022/01/19 14:06:26;;;;;;;27.58;17.83;;;6.40;85.50;;;;;;5013690;28;20014;-35
2022/01/19 14:09:12;;;;;;;25.33;16.77;;;6.40;85.60;;;;;;5013702;28;20021;-30
2022/01/19 14:11:44;;;;;;;26.15;17.00;;;6.40;85.60;;;;;;5012212;28;20065;-34
2022/01/19 14:14:14;;;;;;;24.75;16.95;;;6.40;85.70;;;;;;5013614;28;20581;-35
2022/01/19 14:16:49;;;;;;;26.23;16.85;;;6.40;85.70;;;;;;5013314;28;20030;-31
2022/01/19 14:19:22;;;;;;;28.25;17.23;;;6.50;85.60;;;;;;5013231;28;20025;-31
2022/01/19 14:22:03;;;;;;;26.70;18.08;;;6.50;85.60;;;;;;5013564;28;20470;-30
2022/01/19 14:24:41;;;;;;;28.25;18.10;;;6.50;85.60;;;;;;5013292;28;20437;-30
2022/01/19 14:27:11;;;;;;;28.60;17.30;;;6.50;85.60;;;;;;5013223;28;20083;-34